createdAt,value
2023-02-21T00:00:58.681Z,133.69
2023-02-21T00:01:58.704Z,133.63
2023-02-21T00:02:58.655Z,133.21
2023-02-21T00:03:58.639Z,133.90
2023-02-21T00:04:58.608Z,132.05
2023-02-21T00:05:58.626Z,132.26
2023-02-21T00:06:58.569Z,132.88
2023-02-21T00:07:58.562Z,132.43
2023-02-21T00:08:58.528Z,132.23
2023-02-21T00:09:58.517Z,132.11
2023-02-21T00:10:58.494Z,132.81
2023-02-21T00:11:58.482Z,132.08
2023-02-21T00:12:58.460Z,131.68
2023-02-21T00:13:58.452Z,133.05
2023-02-21T00:14:58.413Z,133.11
2023-02-21T00:15:58.393Z,131.11
2023-02-21T00:16:58.372Z,129.41
2023-02-21T00:17:58.351Z,131.31
2023-02-21T00:18:58.337Z,131.24
2023-02-21T00:19:58.309Z,131.27
2023-02-21T00:20:58.290Z,131.09
2023-02-21T00:21:58.279Z,129.64
2023-02-21T00:22:58.259Z,130.70
2023-02-21T00:23:58.241Z,131.76
2023-02-21T00:24:58.231Z,130.66
2023-02-21T00:25:58.210Z,131.26
2023-02-21T00:26:58.194Z,131.20
2023-02-21T00:27:58.178Z,129.53
2023-02-21T00:28:58.148Z,129.76
2023-02-21T00:29:58.137Z,130.50
2023-02-21T00:30:58.187Z,131.64
2023-02-21T00:31:58.089Z,130.76
2023-02-21T00:32:58.120Z,131.30
2023-02-21T00:33:58.069Z,131.10
2023-02-21T00:34:58.035Z,130.92
2023-02-21T00:35:58.023Z,132.70
2023-02-21T00:36:57.993Z,130.90
2023-02-21T00:37:57.981Z,130.66
2023-02-21T00:38:57.967Z,130.50
2023-02-21T00:39:57.961Z,131.16
2023-02-21T00:40:57.949Z,129.17
2023-02-21T00:41:57.927Z,127.91
2023-02-21T00:42:57.899Z,130.05
2023-02-21T00:43:57.885Z,132.24
2023-02-21T00:44:57.871Z,130.88
2023-02-21T00:45:57.907Z,129.73
2023-02-21T00:46:57.838Z,131.83
2023-02-21T00:47:57.830Z,131.38
2023-02-21T00:48:57.799Z,131.47
2023-02-21T00:49:57.770Z,128.38
2023-02-21T00:50:57.754Z,128.43
2023-02-21T00:51:57.731Z,129.74
2023-02-21T00:52:57.711Z,130.05
2023-02-21T00:53:57.704Z,130.99
2023-02-21T00:54:57.702Z,130.85
2023-02-21T00:55:57.670Z,132.19
2023-02-21T00:56:57.660Z,131.55
2023-02-21T00:57:57.636Z,131.02
2023-02-21T00:58:57.629Z,131.51
2023-02-21T00:59:57.618Z,129.75
2023-02-21T01:00:57.627Z,131.00
2023-02-21T01:01:57.599Z,131.46
2023-02-21T01:02:57.579Z,131.51
2023-02-21T01:03:57.592Z,129.97
2023-02-21T01:04:57.539Z,133.29
2023-02-21T01:05:57.523Z,130.31
2023-02-21T01:06:57.519Z,129.79
2023-02-21T01:07:57.510Z,129.27
2023-02-21T01:08:57.483Z,129.80
2023-02-21T01:09:57.464Z,130.72
2023-02-21T01:10:57.449Z,129.61
2023-02-21T01:11:57.428Z,129.75
2023-02-21T01:12:57.425Z,129.13
2023-02-21T01:13:57.394Z,128.42
2023-02-21T01:14:57.376Z,131.99
2023-02-21T01:15:57.383Z,128.13
2023-02-21T01:17:01.906Z,126.20
2023-02-21T01:17:58.325Z,126.37
2023-02-21T01:18:57.316Z,126.38
2023-02-21T01:19:57.302Z,127.02
2023-02-21T01:20:57.276Z,127.62
2023-02-21T01:21:57.258Z,128.46
2023-02-21T01:22:57.236Z,127.10
2023-02-21T01:23:57.223Z,129.17
2023-02-21T01:24:57.208Z,127.02
2023-02-21T01:25:57.197Z,127.43
2023-02-21T01:26:57.182Z,128.15
2023-02-21T01:27:57.146Z,127.92
2023-02-21T01:28:57.143Z,130.25
2023-02-21T01:29:57.123Z,127.98
2023-02-21T01:30:57.162Z,130.02
2023-02-21T01:31:57.117Z,128.89
2023-02-21T01:32:57.078Z,126.65
2023-02-21T01:33:57.055Z,127.88
2023-02-21T01:34:57.054Z,129.13
2023-02-21T01:35:57.021Z,126.69
2023-02-21T01:36:57.006Z,125.97
2023-02-21T01:37:56.989Z,127.51
2023-02-21T01:38:56.970Z,129.22
2023-02-21T01:39:56.975Z,128.63
2023-02-21T01:40:56.940Z,127.82
2023-02-21T01:41:56.922Z,129.69
2023-02-21T01:42:56.909Z,129.03
2023-02-21T01:43:56.881Z,128.70
2023-02-21T01:44:56.910Z,126.92
2023-02-21T01:45:56.850Z,129.43
2023-02-21T01:46:56.844Z,129.25
2023-02-21T01:47:56.831Z,127.59
2023-02-21T01:48:56.803Z,130.28
2023-02-21T01:49:56.787Z,128.62
2023-02-21T01:50:56.753Z,127.40
2023-02-21T01:51:56.738Z,126.97
2023-02-21T01:52:56.723Z,128.61
2023-02-21T01:53:56.709Z,126.67
2023-02-21T01:54:56.688Z,126.15
2023-02-21T01:55:56.678Z,124.40
2023-02-21T01:56:56.644Z,125.83
2023-02-21T01:57:56.629Z,127.13
2023-02-21T01:58:56.612Z,126.14
2023-02-21T01:59:56.593Z,125.47
2023-02-21T02:00:56.582Z,126.41
2023-02-21T02:01:56.553Z,127.61
2023-02-21T02:02:56.557Z,128.40
2023-02-21T02:03:56.514Z,127.23
2023-02-21T02:04:56.512Z,129.13
2023-02-21T02:05:56.511Z,125.97
2023-02-21T02:06:56.493Z,126.35
2023-02-21T02:07:56.488Z,126.83
2023-02-21T02:08:56.493Z,128.92
2023-02-21T02:09:56.441Z,128.22
2023-02-21T02:10:56.436Z,127.03
2023-02-21T02:11:56.403Z,127.54
2023-02-21T02:12:56.426Z,126.70
2023-02-21T02:13:56.374Z,126.31
2023-02-21T02:14:56.372Z,126.19
2023-02-21T02:15:56.368Z,127.08
2023-02-21T02:16:56.347Z,127.38
2023-02-21T02:17:56.334Z,126.22
2023-02-21T02:18:56.332Z,127.30
2023-02-21T02:19:56.310Z,125.28
2023-02-21T02:20:56.292Z,128.12
2023-02-21T02:21:56.276Z,127.79
2023-02-21T02:22:56.258Z,126.26
2023-02-21T02:23:56.242Z,126.53
2023-02-21T02:24:56.227Z,125.04
2023-02-21T02:25:56.221Z,126.08
2023-02-21T02:26:56.191Z,126.25
2023-02-21T02:27:56.193Z,127.01
2023-02-21T02:28:56.187Z,127.79
2023-02-21T02:29:56.159Z,128.65
2023-02-21T02:30:56.169Z,127.32
2023-02-21T02:31:56.266Z,127.07
2023-02-21T02:32:56.121Z,127.53
2023-02-21T02:33:56.108Z,128.00
2023-02-21T02:34:56.089Z,126.94
2023-02-21T02:35:56.070Z,127.94
2023-02-21T02:36:56.058Z,126.43
2023-02-21T02:37:56.033Z,128.26
2023-02-21T02:38:56.027Z,127.64
2023-02-21T02:39:56.000Z,128.55
2023-02-21T02:40:55.996Z,127.46
2023-02-21T02:41:55.975Z,124.99
2023-02-21T02:42:55.963Z,125.11
2023-02-21T02:43:55.937Z,125.28
2023-02-21T02:44:55.918Z,125.68
2023-02-21T02:45:55.902Z,125.16
2023-02-21T02:46:55.906Z,125.01
2023-02-21T02:47:55.864Z,127.57
2023-02-21T02:48:55.849Z,125.87
2023-02-21T02:49:55.842Z,127.03
2023-02-21T02:50:55.842Z,127.07
2023-02-21T02:51:55.813Z,127.85
2023-02-21T02:52:55.815Z,127.95
2023-02-21T02:53:55.798Z,128.04
2023-02-21T02:54:55.772Z,128.17
2023-02-21T02:55:55.765Z,128.13
2023-02-21T02:56:55.746Z,128.48
2023-02-21T02:57:55.728Z,127.61
2023-02-21T02:58:55.727Z,126.41
2023-02-21T02:59:55.712Z,127.93
2023-02-21T03:00:55.700Z,127.53
2023-02-21T03:01:55.729Z,126.34
2023-02-21T03:02:55.654Z,128.50
2023-02-21T03:03:55.760Z,127.23
2023-02-21T03:04:55.626Z,130.10
2023-02-21T03:05:55.605Z,127.07
2023-02-21T03:06:55.604Z,127.63
2023-02-21T03:07:55.579Z,126.03
2023-02-21T03:08:55.564Z,125.23
2023-02-21T03:09:55.537Z,124.26
2023-02-21T03:10:55.533Z,126.28
2023-02-21T03:11:55.525Z,126.43
2023-02-21T03:12:55.535Z,126.76
2023-02-21T03:13:55.501Z,127.25
2023-02-21T03:14:55.496Z,123.40
2023-02-21T03:15:55.515Z,125.32
2023-02-21T03:16:55.472Z,124.72
2023-02-21T03:17:55.453Z,125.49
2023-02-21T03:18:55.442Z,124.25
2023-02-21T03:19:55.437Z,123.30
2023-02-21T03:20:55.436Z,126.58
2023-02-21T03:21:55.414Z,126.32
2023-02-21T03:22:55.410Z,126.31
2023-02-21T03:23:55.394Z,125.89
2023-02-21T03:24:55.385Z,125.90
2023-02-21T03:25:55.381Z,126.42
2023-02-21T03:26:55.382Z,126.10
2023-02-21T03:27:55.367Z,125.53
2023-02-21T03:28:55.337Z,125.63
2023-02-21T03:29:55.317Z,124.19
2023-02-21T03:30:55.363Z,123.52
2023-02-21T03:31:55.444Z,126.13
2023-02-21T03:32:55.295Z,126.91
2023-02-21T03:33:55.292Z,126.94
2023-02-21T03:34:55.259Z,126.26
2023-02-21T03:35:55.246Z,125.06
2023-02-21T03:36:55.239Z,126.37
2023-02-21T03:37:55.214Z,126.00
2023-02-21T03:38:55.214Z,126.41
2023-02-21T03:39:55.214Z,125.74
2023-02-21T03:40:55.172Z,125.67
2023-02-21T03:41:55.171Z,124.93
2023-02-21T03:42:55.167Z,126.37
2023-02-21T03:43:55.135Z,124.29
2023-02-21T03:44:55.113Z,118.23
2023-02-21T03:45:55.113Z,114.12
2023-02-21T03:46:55.104Z,118.10
2023-02-21T03:47:55.069Z,119.98
2023-02-21T03:48:55.054Z,121.66
2023-02-21T03:49:55.032Z,119.53
2023-02-21T03:50:55.024Z,115.40
2023-02-21T03:51:55.010Z,111.31
2023-02-21T03:52:55.010Z,113.32
2023-02-21T03:53:54.986Z,116.33
2023-02-21T03:54:54.980Z,118.24
2023-02-21T03:55:54.979Z,118.69
2023-02-21T03:56:54.958Z,114.13
2023-02-21T03:57:54.948Z,113.80
2023-02-21T03:58:54.958Z,114.51
2023-02-21T03:59:54.932Z,116.21
2023-02-21T04:00:54.962Z,116.15
2023-02-21T04:01:54.946Z,108.95
2023-02-21T04:02:54.895Z,105.62
2023-02-21T04:03:54.877Z,106.70
2023-02-21T04:04:54.889Z,112.53
2023-02-21T04:05:54.869Z,114.05
2023-02-21T04:06:54.846Z,111.52
2023-02-21T04:07:54.833Z,107.64
2023-02-21T04:08:54.839Z,108.74
2023-02-21T04:09:54.809Z,109.13
2023-02-21T04:10:54.805Z,110.40
2023-02-21T04:11:54.805Z,114.18
2023-02-21T04:12:54.926Z,109.03
2023-02-21T04:13:54.774Z,107.53
2023-02-21T04:14:54.753Z,108.17
2023-02-21T04:15:54.750Z,111.64
2023-02-21T04:16:54.724Z,110.87
2023-02-21T04:17:54.726Z,107.09
2023-02-21T04:18:54.687Z,104.76
2023-02-21T04:19:54.682Z,105.47
2023-02-21T04:20:54.666Z,104.28
2023-02-21T04:21:54.659Z,107.01
2023-02-21T04:23:03.213Z,109.65
2023-02-21T04:23:55.627Z,109.68
2023-02-21T04:24:54.591Z,105.76
2023-02-21T04:25:54.581Z,104.47
2023-02-21T04:26:54.565Z,107.58
2023-02-21T04:27:54.557Z,106.96
2023-02-21T04:28:54.544Z,108.60
2023-02-21T04:29:54.526Z,101.74
2023-02-21T04:30:54.522Z,101.73
2023-02-21T04:31:54.594Z,102.96
2023-02-21T04:32:54.515Z,106.62
2023-02-21T04:34:05.825Z,107.28
2023-02-21T04:34:54.475Z,107.31
2023-02-21T04:35:54.460Z,100.29
2023-02-21T04:36:54.451Z,94.42
2023-02-21T04:37:54.438Z,100.46
2023-02-21T04:38:54.420Z,103.66
2023-02-21T04:39:54.421Z,104.54
2023-02-21T04:40:54.383Z,99.21
2023-02-21T04:41:54.369Z,98.47
2023-02-21T04:42:54.357Z,98.58
2023-02-21T04:43:54.349Z,98.92
2023-02-21T04:45:00.039Z,100.30
2023-02-21T04:45:55.376Z,98.77
2023-02-21T04:46:54.314Z,99.02
2023-02-21T04:47:54.301Z,99.20
2023-02-21T04:48:54.300Z,99.82
2023-02-21T04:49:54.273Z,103.54
2023-02-21T04:50:57.283Z,103.76
2023-02-21T04:51:55.253Z,103.14
2023-02-21T04:52:54.241Z,101.28
2023-02-21T04:53:54.236Z,98.58
2023-02-21T04:54:54.216Z,98.83
2023-02-21T04:55:54.185Z,102.45
2023-02-21T04:56:54.185Z,103.50
2023-02-21T04:57:54.161Z,98.31
2023-02-21T04:58:54.160Z,94.48
2023-02-21T04:59:54.135Z,97.99
2023-02-21T05:00:54.165Z,99.14
2023-02-21T05:01:54.114Z,98.93
2023-02-21T05:02:54.120Z,99.86
2023-02-21T05:03:54.109Z,92.10
2023-02-21T05:04:54.087Z,93.68
2023-02-21T05:05:54.063Z,93.58
2023-02-21T05:06:54.046Z,98.75
2023-02-21T05:07:54.036Z,101.18
2023-02-21T05:08:54.032Z,96.36
2023-02-21T05:09:54.014Z,93.90
2023-02-21T05:10:54.001Z,96.34
2023-02-21T05:11:53.994Z,97.86
2023-02-21T05:12:53.992Z,98.84
2023-02-21T05:13:53.991Z,101.43
2023-02-21T05:14:53.975Z,97.77
2023-02-21T05:15:53.956Z,94.49
2023-02-21T05:16:53.969Z,96.77
2023-02-21T05:17:53.932Z,96.90
2023-02-21T05:18:53.950Z,97.30
2023-02-21T05:19:53.908Z,98.39
2023-02-21T05:20:53.899Z,97.11
2023-02-21T05:21:53.884Z,95.08
2023-02-21T05:22:55.967Z,97.70
2023-02-21T05:23:53.866Z,97.81
2023-02-21T05:24:53.852Z,97.98
2023-02-21T05:25:53.835Z,97.36
2023-02-21T05:26:53.831Z,94.75
2023-02-21T05:27:53.822Z,95.54
2023-02-21T05:28:53.792Z,99.66
2023-02-21T05:29:53.785Z,99.73
2023-02-21T05:30:53.842Z,99.67
2023-02-21T05:31:53.754Z,96.00
2023-02-21T05:33:53.726Z,97.25
2023-02-21T05:34:53.742Z,96.71
2023-02-21T05:35:53.692Z,95.74
2023-02-21T05:36:53.680Z,97.58
2023-02-21T05:37:53.675Z,93.48
2023-02-21T05:38:53.735Z,93.85
2023-02-21T05:39:53.653Z,95.63
2023-02-21T05:40:53.638Z,96.89
2023-02-21T05:41:53.622Z,99.78
2023-02-21T05:42:53.617Z,95.16
2023-02-21T05:43:53.635Z,90.31
2023-02-21T05:44:53.598Z,90.61
2023-02-21T05:45:53.579Z,91.54
2023-02-21T05:46:53.567Z,93.04
2023-02-21T05:47:53.547Z,95.73
2023-02-21T05:48:53.541Z,94.38
2023-02-21T05:49:53.535Z,93.69
2023-02-21T05:50:53.512Z,94.44
2023-02-21T05:51:53.502Z,94.58
2023-02-21T05:52:53.488Z,94.85
2023-02-21T05:53:53.463Z,95.01
2023-02-21T05:54:53.451Z,93.15
2023-02-21T05:55:53.446Z,96.24
2023-02-21T05:56:53.425Z,96.63
2023-02-21T05:57:53.419Z,96.94
2023-02-21T05:58:53.402Z,99.10
2023-02-21T05:59:53.390Z,94.62
2023-02-21T06:00:53.360Z,95.53
2023-02-21T06:01:53.372Z,90.38
2023-02-21T06:02:53.389Z,91.88
2023-02-21T06:03:53.367Z,93.24
2023-02-21T06:04:53.307Z,95.88
2023-02-21T06:05:53.402Z,91.60
2023-02-21T06:06:53.286Z,93.42
2023-02-21T06:07:53.261Z,92.81
2023-02-21T06:08:53.253Z,94.64
2023-02-21T06:09:53.238Z,94.60
2023-02-21T06:10:53.222Z,95.44
2023-02-21T06:11:53.222Z,92.81
2023-02-21T06:12:53.198Z,95.23
2023-02-21T06:13:53.188Z,97.13
2023-02-21T06:14:53.173Z,96.42
2023-02-21T06:15:53.199Z,96.09
2023-02-21T06:16:53.137Z,94.43
2023-02-21T06:17:53.126Z,95.84
2023-02-21T06:18:53.103Z,95.83
2023-02-21T06:19:53.084Z,96.33
2023-02-21T06:20:53.070Z,95.53
2023-02-21T06:21:53.069Z,95.98
2023-02-21T06:22:53.033Z,93.59
2023-02-21T06:23:53.019Z,90.99
2023-02-21T06:24:53.013Z,91.45
2023-02-21T06:25:52.999Z,93.60
2023-02-21T06:26:52.983Z,94.82
2023-02-21T06:27:53.033Z,94.96
2023-02-21T06:28:52.971Z,94.34
2023-02-21T06:29:52.941Z,95.68
2023-02-21T06:30:53.165Z,95.39
2023-02-21T06:31:52.946Z,96.49
2023-02-21T06:32:52.898Z,94.69
2023-02-21T06:33:52.885Z,93.91
2023-02-21T06:34:52.880Z,97.71
2023-02-21T06:35:52.863Z,99.06
2023-02-21T06:36:52.827Z,99.31
2023-02-21T06:37:52.809Z,100.25
2023-02-21T06:38:52.801Z,103.61
2023-02-21T06:39:52.806Z,108.07
2023-02-21T06:40:52.781Z,116.60
2023-02-21T06:41:52.765Z,99.89
2023-02-21T06:42:52.744Z,103.69
2023-02-21T06:43:52.723Z,111.81
2023-02-21T06:44:52.713Z,126.21
2023-02-21T06:45:52.749Z,145.12
2023-02-21T06:46:52.758Z,154.77
2023-02-21T06:47:52.771Z,160.01
2023-02-21T06:48:52.659Z,170.17
2023-02-21T06:49:52.687Z,175.18
2023-02-21T06:50:52.625Z,181.01
2023-02-21T06:51:52.614Z,179.94
2023-02-21T06:52:52.761Z,180.27
2023-02-21T06:53:52.591Z,182.06
2023-02-21T06:54:52.629Z,185.24
2023-02-21T06:55:52.595Z,190.90
2023-02-21T06:56:52.537Z,198.17
2023-02-21T06:57:52.502Z,199.82
2023-02-21T06:58:52.478Z,199.73
2023-02-21T06:59:52.465Z,200.80
2023-02-21T07:00:52.478Z,200.00
2023-02-21T07:01:52.500Z,201.82
2023-02-21T07:02:52.425Z,202.08
2023-02-21T07:03:52.416Z,200.78
2023-02-21T07:04:52.425Z,200.75
2023-02-21T07:05:52.370Z,200.56
2023-02-21T07:06:52.352Z,198.82
2023-02-21T07:07:52.318Z,200.94
2023-02-21T07:08:52.307Z,199.75
2023-02-21T07:09:52.301Z,199.34
2023-02-21T07:10:52.274Z,199.48
2023-02-21T07:11:52.256Z,199.79
2023-02-21T07:12:52.370Z,199.21
2023-02-21T07:13:52.220Z,199.45
2023-02-21T07:14:52.194Z,197.90
2023-02-21T07:15:52.217Z,198.72
2023-02-21T07:16:52.152Z,197.79
2023-02-21T07:17:52.133Z,198.16
2023-02-21T07:18:52.119Z,197.60
2023-02-21T07:19:52.089Z,197.88
2023-02-21T07:20:52.062Z,196.96
2023-02-21T07:21:52.056Z,197.26
2023-02-21T07:22:52.038Z,196.69
2023-02-21T07:23:52.025Z,195.89
2023-02-21T07:24:52.014Z,196.40
2023-02-21T07:25:51.970Z,195.97
2023-02-21T07:26:51.957Z,194.94
2023-02-21T07:27:51.930Z,195.14
2023-02-21T07:28:51.937Z,195.43
2023-02-21T07:29:51.892Z,195.56
2023-02-21T07:30:51.923Z,195.91
2023-02-21T07:31:51.900Z,195.29
2023-02-21T07:32:51.836Z,194.81
2023-02-21T07:33:51.848Z,195.16
2023-02-21T07:34:51.798Z,195.52
2023-02-21T07:35:51.780Z,195.50
2023-02-21T07:36:51.760Z,194.77
2023-02-21T07:37:51.736Z,196.16
2023-02-21T07:38:51.725Z,194.93
2023-02-21T07:39:51.701Z,193.86
2023-02-21T07:40:51.678Z,195.19
2023-02-21T07:41:51.677Z,193.26
2023-02-21T07:42:51.631Z,200.40
2023-02-21T07:43:51.648Z,202.71
2023-02-21T07:44:51.627Z,201.52
2023-02-21T07:45:51.581Z,203.24
2023-02-21T07:46:51.560Z,204.62
2023-02-21T07:47:51.560Z,209.77
2023-02-21T07:48:51.507Z,215.16
2023-02-21T07:49:51.494Z,218.63
2023-02-21T07:50:51.462Z,221.89
2023-02-21T07:51:51.433Z,228.34
2023-02-21T07:52:51.407Z,233.16
2023-02-21T07:53:51.390Z,233.24
2023-02-21T07:54:51.362Z,233.55
2023-02-21T07:55:51.351Z,234.34
2023-02-21T07:56:51.324Z,236.79
2023-02-21T07:57:51.295Z,247.77
2023-02-21T07:58:51.270Z,250.00
2023-02-21T07:59:51.246Z,248.15
2023-02-21T08:00:51.224Z,245.92
2023-02-21T08:01:51.260Z,250.00
2023-02-21T08:02:51.159Z,246.25
2023-02-21T08:03:51.152Z,245.82
2023-02-21T08:04:51.140Z,248.98
2023-02-21T08:05:51.076Z,250.00
2023-02-21T08:06:51.080Z,249.75
2023-02-21T08:07:51.047Z,247.76
2023-02-21T08:08:51.056Z,249.26
2023-02-21T08:09:50.973Z,248.91
2023-02-21T08:10:50.987Z,248.74
2023-02-21T08:11:50.914Z,250.00
2023-02-21T08:12:50.940Z,250.00
2023-02-21T08:13:50.838Z,250.00
2023-02-21T08:14:50.837Z,245.88
2023-02-21T08:15:50.844Z,249.28
2023-02-21T08:16:50.740Z,249.68
2023-02-21T08:17:50.701Z,249.67
2023-02-21T08:18:50.698Z,248.41
2023-02-21T08:19:50.641Z,246.71
2023-02-21T08:20:50.605Z,248.14
2023-02-21T08:21:50.581Z,250.00
2023-02-21T08:22:50.554Z,248.66
2023-02-21T08:23:50.526Z,249.53
2023-02-21T08:24:50.516Z,249.52
2023-02-21T08:25:50.552Z,247.61
2023-02-21T08:26:50.452Z,247.50
2023-02-21T08:27:50.415Z,248.02
2023-02-21T08:28:50.377Z,248.83
2023-02-21T08:29:50.363Z,246.65
2023-02-21T08:30:50.319Z,246.63
2023-02-21T08:31:50.351Z,248.96
2023-02-21T08:32:50.244Z,246.36
2023-02-21T08:33:50.234Z,247.08
2023-02-21T08:34:50.185Z,249.00
2023-02-21T08:35:50.144Z,247.96
2023-02-21T08:36:50.095Z,250.00
2023-02-21T08:37:50.105Z,250.00
2023-02-21T08:38:50.030Z,250.00
2023-02-21T08:39:50.000Z,238.68
2023-02-21T08:40:49.961Z,217.30
2023-02-21T08:41:49.923Z,202.41
2023-02-21T08:42:49.902Z,170.93
2023-02-21T08:43:49.835Z,105.04
2023-02-21T08:44:49.828Z,69.91
2023-02-21T08:45:49.765Z,21.69
2023-02-21T08:46:49.972Z,6.06
2023-02-21T08:47:49.725Z,0.00
2023-02-21T08:48:49.698Z,0.00
2023-02-21T08:49:49.672Z,0.00
2023-02-21T08:50:49.645Z,0.00
2023-02-21T08:51:49.635Z,0.00
2023-02-21T08:52:49.633Z,0.00
2023-02-21T08:53:49.613Z,0.00
2023-02-21T08:54:49.598Z,0.00
2023-02-21T08:55:49.622Z,0.00
2023-02-21T08:56:49.576Z,0.00
2023-02-21T08:57:49.575Z,0.00
2023-02-21T08:58:49.560Z,0.00
2023-02-21T08:59:49.551Z,0.00
2023-02-21T09:00:49.550Z,0.00
2023-02-21T09:01:49.618Z,5.94
2023-02-21T09:02:49.525Z,7.39
2023-02-21T09:03:49.521Z,11.98
2023-02-21T09:04:49.513Z,14.41
2023-02-21T09:05:49.499Z,10.24
2023-02-21T09:06:49.480Z,1.26
2023-02-21T09:07:49.495Z,7.67
2023-02-21T09:08:49.506Z,0.00
2023-02-21T09:09:49.455Z,7.76
2023-02-21T09:10:49.566Z,14.33
2023-02-21T09:11:49.442Z,21.44
2023-02-21T09:12:49.432Z,19.91
2023-02-21T09:13:49.425Z,22.84
2023-02-21T09:14:49.401Z,27.11
2023-02-21T09:15:49.397Z,27.13
2023-02-21T09:16:49.396Z,29.11
2023-02-21T09:17:49.366Z,24.46
2023-02-21T09:18:49.335Z,22.21
2023-02-21T09:19:49.335Z,24.34
2023-02-21T09:20:49.312Z,21.89
2023-02-21T09:21:49.310Z,25.51
2023-02-21T09:22:49.289Z,28.32
2023-02-21T09:23:49.278Z,28.46
2023-02-21T09:24:49.272Z,31.81
2023-02-21T09:25:49.290Z,29.77
2023-02-21T09:26:49.296Z,28.09
2023-02-21T09:27:49.243Z,22.99
2023-02-21T09:28:49.210Z,26.98
2023-02-21T09:29:49.215Z,26.02
2023-02-21T09:30:49.193Z,44.02
2023-02-21T09:31:49.190Z,63.03
2023-02-21T09:32:49.153Z,81.54
2023-02-21T09:33:49.147Z,96.50
2023-02-21T09:34:49.131Z,107.98
2023-02-21T09:35:49.089Z,118.37
2023-02-21T09:36:49.062Z,126.44
2023-02-21T09:37:49.055Z,126.67
2023-02-21T09:38:49.024Z,128.15
2023-02-21T09:39:48.999Z,132.02
2023-02-21T09:40:48.965Z,137.22
2023-02-21T09:41:48.938Z,146.98
2023-02-21T09:42:48.930Z,149.87
2023-02-21T09:43:48.905Z,152.32
2023-02-21T09:44:48.867Z,153.57
2023-02-21T09:45:48.936Z,154.31
2023-02-21T09:46:48.815Z,157.38
2023-02-21T09:47:48.811Z,159.92
2023-02-21T09:48:48.767Z,162.39
2023-02-21T09:49:48.737Z,165.92
2023-02-21T09:50:48.718Z,169.41
2023-02-21T09:51:48.678Z,172.40
2023-02-21T09:52:48.674Z,172.49
2023-02-21T09:53:48.650Z,172.98
2023-02-21T09:54:48.625Z,173.49
2023-02-21T09:55:48.572Z,176.50
2023-02-21T09:56:48.547Z,181.48
2023-02-21T09:57:48.513Z,184.23
2023-02-21T09:58:48.489Z,186.46
2023-02-21T09:59:48.486Z,186.55
2023-02-21T10:00:48.498Z,188.23
2023-02-21T10:01:48.417Z,188.69
2023-02-21T10:02:48.383Z,188.69
2023-02-21T10:03:48.350Z,189.64
2023-02-21T10:04:48.337Z,190.72
2023-02-21T10:05:48.256Z,192.48
2023-02-21T10:06:48.277Z,195.59
2023-02-21T10:07:48.181Z,195.86
2023-02-21T10:08:48.148Z,195.94
2023-02-21T10:09:48.119Z,196.33
2023-02-21T10:10:48.058Z,196.58
2023-02-21T10:11:48.021Z,196.24
2023-02-21T10:12:47.962Z,198.42
2023-02-21T10:13:47.916Z,200.13
2023-02-21T10:14:47.902Z,201.50
2023-02-21T10:15:47.823Z,202.72
2023-02-21T10:16:47.832Z,205.02
2023-02-21T10:17:47.725Z,206.93
2023-02-21T10:18:47.685Z,208.32
2023-02-21T10:19:47.646Z,208.97
2023-02-21T10:20:47.593Z,209.85
2023-02-21T10:21:47.552Z,211.20
2023-02-21T10:22:47.511Z,211.09
2023-02-21T10:23:47.466Z,213.01
2023-02-21T10:24:47.397Z,213.62
2023-02-21T10:25:47.384Z,215.30
2023-02-21T10:26:47.318Z,214.97
2023-02-21T10:27:47.269Z,214.31
2023-02-21T10:28:47.248Z,213.93
2023-02-21T10:29:47.215Z,214.10
2023-02-21T10:30:47.208Z,214.67
2023-02-21T10:31:47.136Z,212.71
2023-02-21T10:32:47.025Z,212.30
2023-02-21T10:33:46.965Z,215.37
2023-02-21T10:34:47.412Z,215.49
2023-02-21T10:35:46.893Z,216.87
2023-02-21T10:36:46.828Z,218.96
2023-02-21T10:37:46.798Z,218.18
2023-02-21T10:38:46.750Z,219.28
2023-02-21T10:39:46.707Z,219.25
2023-02-21T10:40:46.669Z,221.19
2023-02-21T10:41:46.668Z,224.88
2023-02-21T10:42:46.572Z,226.95
2023-02-21T10:43:46.528Z,226.30
2023-02-21T10:44:46.476Z,226.01
2023-02-21T10:45:47.034Z,225.46
2023-02-21T10:46:46.413Z,224.26
2023-02-21T10:47:46.316Z,221.03
2023-02-21T10:48:46.272Z,221.98
2023-02-21T10:49:46.218Z,219.10
2023-02-21T10:50:46.167Z,212.96
2023-02-21T10:51:46.108Z,210.44
2023-02-21T10:52:46.077Z,210.61
2023-02-21T10:53:46.012Z,210.79
2023-02-21T10:54:45.936Z,208.83
2023-02-21T10:55:45.865Z,208.93
2023-02-21T10:56:45.802Z,208.78
2023-02-21T10:57:45.741Z,209.84
2023-02-21T10:58:45.667Z,210.97
2023-02-21T10:59:45.621Z,212.60
2023-02-21T11:00:45.570Z,212.77
2023-02-21T11:01:45.665Z,212.16
2023-02-21T11:02:45.543Z,212.87
2023-02-21T11:03:45.929Z,213.54
2023-02-21T11:04:45.366Z,211.10
2023-02-21T11:05:45.313Z,210.15
2023-02-21T11:06:45.249Z,210.13
2023-02-21T11:07:45.151Z,210.72
2023-02-21T11:08:45.056Z,209.68
2023-02-21T11:09:45.040Z,209.33
2023-02-21T11:10:44.912Z,207.24
2023-02-21T11:11:44.823Z,209.27
2023-02-21T11:12:44.749Z,209.75
2023-02-21T11:13:44.728Z,210.10
2023-02-21T11:14:44.613Z,211.30
2023-02-21T11:15:44.565Z,212.38
2023-02-21T11:16:44.463Z,211.81
2023-02-21T11:17:44.377Z,211.42
2023-02-21T11:18:44.309Z,212.04
2023-02-21T11:19:44.279Z,212.75
2023-02-21T11:20:44.174Z,212.49
2023-02-21T11:21:44.088Z,214.20
2023-02-21T11:22:44.001Z,212.13
2023-02-21T11:23:43.933Z,220.22
2023-02-21T11:24:43.877Z,222.89
2023-02-21T11:25:43.817Z,220.20
2023-02-21T11:26:43.762Z,218.91
2023-02-21T11:27:46.151Z,218.88
2023-02-21T11:28:43.661Z,217.99
2023-02-21T11:29:43.535Z,218.83
2023-02-21T11:30:43.606Z,219.25
2023-02-21T11:31:43.458Z,220.72
2023-02-21T11:32:43.303Z,216.80
2023-02-21T11:33:43.238Z,216.45
2023-02-21T11:34:43.172Z,214.98
2023-02-21T11:35:43.090Z,211.46
2023-02-21T11:36:43.021Z,212.40
2023-02-21T11:37:42.942Z,216.81
2023-02-21T11:38:42.929Z,217.95
2023-02-21T11:39:42.829Z,219.57
2023-02-21T11:40:42.783Z,222.11
2023-02-21T11:41:42.671Z,226.47
2023-02-21T11:42:42.603Z,230.34
2023-02-21T11:43:42.539Z,227.14
2023-02-21T11:44:42.479Z,227.03
2023-02-21T11:45:42.442Z,229.59
2023-02-21T11:46:42.339Z,225.76
2023-02-21T11:47:42.275Z,227.06
2023-02-21T11:48:42.191Z,225.70
2023-02-21T11:49:43.159Z,220.50
2023-02-21T11:50:42.096Z,219.33
2023-02-21T11:51:42.041Z,213.75
2023-02-21T11:52:41.939Z,218.39
2023-02-21T11:53:41.876Z,219.42
2023-02-21T11:54:41.807Z,215.42
2023-02-21T11:55:41.745Z,211.59
2023-02-21T11:56:41.704Z,210.16
2023-02-21T11:57:41.622Z,206.53
2023-02-21T11:58:41.561Z,208.20
2023-02-21T11:59:41.495Z,205.75
2023-02-21T12:00:41.423Z,204.06
2023-02-21T12:01:41.365Z,206.97
2023-02-21T12:02:41.347Z,210.61
2023-02-21T12:03:41.272Z,212.21
2023-02-21T12:04:41.192Z,210.34
2023-02-21T12:05:41.201Z,214.94
2023-02-21T12:06:41.074Z,212.24
2023-02-21T12:07:41.014Z,208.89
2023-02-21T12:08:40.959Z,209.12
2023-02-21T12:09:40.890Z,209.07
2023-02-21T12:10:40.823Z,210.14
2023-02-21T12:11:40.772Z,206.65
2023-02-21T12:12:40.762Z,201.86
2023-02-21T12:13:40.656Z,200.25
2023-02-21T12:14:40.607Z,203.52
2023-02-21T12:15:40.558Z,200.58
2023-02-21T12:16:40.488Z,196.40
2023-02-21T12:17:40.424Z,189.78
2023-02-21T12:18:40.375Z,186.14
2023-02-21T12:19:40.291Z,182.96
2023-02-21T12:20:40.227Z,182.18
2023-02-21T12:21:40.178Z,179.16
2023-02-21T12:22:42.488Z,177.33
2023-02-21T12:23:40.176Z,174.69
2023-02-21T12:24:40.133Z,170.70
2023-02-21T12:25:40.048Z,187.74
2023-02-21T12:26:39.994Z,197.40
2023-02-21T12:27:39.945Z,194.11
2023-02-21T12:28:39.888Z,201.06
2023-02-21T12:29:39.814Z,206.72
2023-02-21T12:30:39.841Z,205.20
2023-02-21T12:31:39.746Z,207.38
2023-02-21T12:32:39.614Z,206.48
2023-02-21T12:33:39.548Z,207.40
2023-02-21T12:34:39.497Z,210.72
2023-02-21T12:35:39.654Z,209.54